sensor_id;sensor_type;location;lat;lon;timestamp;temperature;humidity
21355;DHT22;10835;50.148;19.760;2022-07-23T00:01:17;33.00;48.90
21355;DHT22;10835;50.148;19.760;2022-07-23T00:03:53;33.10;48.60
21355;DHT22;10835;50.148;19.760;2022-07-23T00:06:22;33.20;48.40
21355;DHT22;10835;50.148;19.760;2022-07-23T00:08:50;33.20;47.90
21355;DHT22;10835;50.148;19.760;2022-07-23T00:11:18;33.20;47.70
21355;DHT22;10835;50.148;19.760;2022-07-23T00:13:47;33.10;47.70
21355;DHT22;10835;50.148;19.760;2022-07-23T00:16:16;33.20;48.10
21355;DHT22;10835;50.148;19.760;2022-07-23T00:18:44;33.20;47.80
21355;DHT22;10835;50.148;19.760;2022-07-23T00:21:12;32.80;47.80
21355;DHT22;10835;50.148;19.760;2022-07-23T00:23:40;32.40;48.40
21355;DHT22;10835;50.148;19.760;2022-07-23T00:26:08;32.60;48.80
21355;DHT22;10835;50.148;19.760;2022-07-23T00:28:36;32.30;48.50
21355;DHT22;10835;50.148;19.760;2022-07-23T00:31:08;31.50;49.40
21355;DHT22;10835;50.148;19.760;2022-07-23T00:33:36;31.30;50.20
21355;DHT22;10835;50.148;19.760;2022-07-23T00:36:05;31.00;50.60
21355;DHT22;10835;50.148;19.760;2022-07-23T00:38:34;31.00;51.00
21355;DHT22;10835;50.148;19.760;2022-07-23T00:41:02;31.30;51.20
21355;DHT22;10835;50.148;19.760;2022-07-23T00:43:30;31.50;50.60
21355;DHT22;10835;50.148;19.760;2022-07-23T00:45:58;31.40;50.20
21355;DHT22;10835;50.148;19.760;2022-07-23T00:48:30;31.40;50.30
21355;DHT22;10835;50.148;19.760;2022-07-23T00:50:58;30.90;50.40
21355;DHT22;10835;50.148;19.760;2022-07-23T00:53:26;31.10;50.90
21355;DHT22;10835;50.148;19.760;2022-07-23T00:55:54;31.10;50.80
21355;DHT22;10835;50.148;19.760;2022-07-23T00:58:22;31.10;50.50
21355;DHT22;10835;50.148;19.760;2022-07-23T01:00:50;31.60;50.70
21355;DHT22;10835;50.148;19.760;2022-07-23T01:03:19;31.90;49.90
21355;DHT22;10835;50.148;19.760;2022-07-23T01:05:48;32.10;49.30
21355;DHT22;10835;50.148;19.760;2022-07-23T01:08:16;32.10;49.30
21355;DHT22;10835;50.148;19.760;2022-07-23T01:10:49;31.80;49.10
21355;DHT22;10835;50.148;19.760;2022-07-23T01:13:18;31.60;49.40
21355;DHT22;10835;50.148;19.760;2022-07-23T01:15:46;31.70;49.30
21355;DHT22;10835;50.148;19.760;2022-07-23T01:18:14;31.50;49.40
21355;DHT22;10835;50.148;19.760;2022-07-23T01:20:42;31.30;49.60
21355;DHT22;10835;50.148;19.760;2022-07-23T01:23:11;31.90;49.40
21355;DHT22;10835;50.148;19.760;2022-07-23T01:25:49;32.10;48.70
21355;DHT22;10835;50.148;19.760;2022-07-23T01:28:17;32.20;48.60
21355;DHT22;10835;50.148;19.760;2022-07-23T01:30:47;32.30;48.40
21355;DHT22;10835;50.148;19.760;2022-07-23T01:33:15;32.30;48.30
21355;DHT22;10835;50.148;19.760;2022-07-23T01:35:43;32.30;48.10
21355;DHT22;10835;50.148;19.760;2022-07-23T01:38:19;32.10;48.00
21355;DHT22;10835;50.148;19.760;2022-07-23T01:40:47;32.30;47.90
21355;DHT22;10835;50.148;19.760;2022-07-23T01:43:22;32.00;48.10
21355;DHT22;10835;50.148;19.760;2022-07-23T01:45:53;31.90;48.10
21355;DHT22;10835;50.148;19.760;2022-07-23T01:48:23;32.00;47.90
21355;DHT22;10835;50.148;19.760;2022-07-23T01:51:11;32.10;48.20
21355;DHT22;10835;50.148;19.760;2022-07-23T01:53:45;32.30;48.10
21355;DHT22;10835;50.148;19.760;2022-07-23T01:56:13;32.50;48.30
21355;DHT22;10835;50.148;19.760;2022-07-23T01:58:42;32.40;47.80
21355;DHT22;10835;50.148;19.760;2022-07-23T02:01:11;32.40;47.80
21355;DHT22;10835;50.148;19.760;2022-07-23T02:03:39;32.50;47.60
21355;DHT22;10835;50.148;19.760;2022-07-23T02:06:07;32.40;47.70
21355;DHT22;10835;50.148;19.760;2022-07-23T02:08:36;32.50;48.00
21355;DHT22;10835;50.148;19.760;2022-07-23T02:11:05;32.40;47.30
21355;DHT22;10835;50.148;19.760;2022-07-23T02:13:34;32.10;47.50
21355;DHT22;10835;50.148;19.760;2022-07-23T02:16:02;32.20;47.70
21355;DHT22;10835;50.148;19.760;2022-07-23T02:18:31;32.20;47.10
21355;DHT22;10835;50.148;19.760;2022-07-23T02:20:59;32.30;47.80
21355;DHT22;10835;50.148;19.760;2022-07-23T02:23:27;32.20;47.50
21355;DHT22;10835;50.148;19.760;2022-07-23T02:25:55;32.30;47.20
21355;DHT22;10835;50.148;19.760;2022-07-23T02:28:24;32.30;47.40
21355;DHT22;10835;50.148;19.760;2022-07-23T02:30:52;32.00;46.80
21355;DHT22;10835;50.148;19.760;2022-07-23T02:33:20;32.30;46.70
21355;DHT22;10835;50.148;19.760;2022-07-23T02:35:48;32.40;46.20
21355;DHT22;10835;50.148;19.760;2022-07-23T02:38:18;31.90;46.70
21355;DHT22;10835;50.148;19.760;2022-07-23T02:40:47;32.00;47.80
21355;DHT22;10835;50.148;19.760;2022-07-23T02:43:16;32.10;47.60
21355;DHT22;10835;50.148;19.760;2022-07-23T02:45:46;32.30;46.60
21355;DHT22;10835;50.148;19.760;2022-07-23T02:48:16;32.40;46.90
21355;DHT22;10835;50.148;19.760;2022-07-23T02:50:46;32.40;46.40
21355;DHT22;10835;50.148;19.760;2022-07-23T02:53:19;32.50;46.30
21355;DHT22;10835;50.148;19.760;2022-07-23T02:55:48;32.50;46.40
21355;DHT22;10835;50.148;19.760;2022-07-23T02:58:16;32.60;46.00
21355;DHT22;10835;50.148;19.760;2022-07-23T03:00:45;31.80;46.30
21355;DHT22;10835;50.148;19.760;2022-07-23T03:03:13;31.50;47.30
21355;DHT22;10835;50.148;19.760;2022-07-23T03:05:41;31.50;47.60
21355;DHT22;10835;50.148;19.760;2022-07-23T03:08:10;31.20;47.50
21355;DHT22;10835;50.148;19.760;2022-07-23T03:10:41;30.80;48.50
21355;DHT22;10835;50.148;19.760;2022-07-23T03:13:09;30.70;48.50
21355;DHT22;10835;50.148;19.760;2022-07-23T03:15:37;31.00;49.30
21355;DHT22;10835;50.148;19.760;2022-07-23T03:18:06;31.30;48.80
21355;DHT22;10835;50.148;19.760;2022-07-23T03:20:34;31.20;48.20
21355;DHT22;10835;50.148;19.760;2022-07-23T03:23:02;31.40;48.30
21355;DHT22;10835;50.148;19.760;2022-07-23T03:25:31;31.50;48.50
21355;DHT22;10835;50.148;19.760;2022-07-23T03:27:59;31.40;48.90
21355;DHT22;10835;50.148;19.760;2022-07-23T03:30:28;31.60;48.80
21355;DHT22;10835;50.148;19.760;2022-07-23T03:32:56;31.60;48.20
21355;DHT22;10835;50.148;19.760;2022-07-23T03:35:26;31.60;48.20
21355;DHT22;10835;50.148;19.760;2022-07-23T03:38:10;31.60;48.10
21355;DHT22;10835;50.148;19.760;2022-07-23T03:40:39;31.60;48.20
21355;DHT22;10835;50.148;19.760;2022-07-23T03:43:07;31.70;48.50
21355;DHT22;10835;50.148;19.760;2022-07-23T03:45:35;31.90;48.60
21355;DHT22;10835;50.148;19.760;2022-07-23T03:48:04;32.00;48.20
21355;DHT22;10835;50.148;19.760;2022-07-23T03:50:33;32.00;47.50
21355;DHT22;10835;50.148;19.760;2022-07-23T03:53:04;32.10;47.70
21355;DHT22;10835;50.148;19.760;2022-07-23T03:55:33;32.20;47.20
21355;DHT22;10835;50.148;19.760;2022-07-23T03:58:01;32.20;47.80
21355;DHT22;10835;50.148;19.760;2022-07-23T04:00:30;32.30;48.10
21355;DHT22;10835;50.148;19.760;2022-07-23T04:02:59;32.40;47.40
21355;DHT22;10835;50.148;19.760;2022-07-23T04:05:27;32.30;47.20
21355;DHT22;10835;50.148;19.760;2022-07-23T04:08:06;32.30;47.40
21355;DHT22;10835;50.148;19.760;2022-07-23T04:10:38;32.30;47.50
21355;DHT22;10835;50.148;19.760;2022-07-23T04:13:07;32.40;47.50
21355;DHT22;10835;50.148;19.760;2022-07-23T04:15:35;32.40;47.50
21355;DHT22;10835;50.148;19.760;2022-07-23T04:18:05;32.40;47.70
21355;DHT22;10835;50.148;19.760;2022-07-23T04:20:43;32.40;48.30
21355;DHT22;10835;50.148;19.760;2022-07-23T04:23:12;32.70;48.50
21355;DHT22;10835;50.148;19.760;2022-07-23T04:25:42;32.90;48.30
21355;DHT22;10835;50.148;19.760;2022-07-23T04:28:10;33.00;48.00
21355;DHT22;10835;50.148;19.760;2022-07-23T04:30:38;33.10;47.90
21355;DHT22;10835;50.148;19.760;2022-07-23T04:33:07;33.00;47.00
21355;DHT22;10835;50.148;19.760;2022-07-23T04:35:38;33.00;46.90
21355;DHT22;10835;50.148;19.760;2022-07-23T04:38:15;32.80;47.30
21355;DHT22;10835;50.148;19.760;2022-07-23T04:40:44;33.00;47.80
21355;DHT22;10835;50.148;19.760;2022-07-23T04:43:12;33.10;47.60
21355;DHT22;10835;50.148;19.760;2022-07-23T04:45:45;33.10;47.40
21355;DHT22;10835;50.148;19.760;2022-07-23T04:48:13;32.70;47.10
21355;DHT22;10835;50.148;19.760;2022-07-23T04:50:43;33.10;47.30
21355;DHT22;10835;50.148;19.760;2022-07-23T04:53:18;33.40;47.20
21355;DHT22;10835;50.148;19.760;2022-07-23T04:55:48;33.60;46.90
21355;DHT22;10835;50.148;19.760;2022-07-23T04:58:16;33.80;47.90
21355;DHT22;10835;50.148;19.760;2022-07-23T05:00:44;34.10;47.00
21355;DHT22;10835;50.148;19.760;2022-07-23T05:03:12;34.30;46.60
21355;DHT22;10835;50.148;19.760;2022-07-23T05:05:40;34.50;47.00
21355;DHT22;10835;50.148;19.760;2022-07-23T05:08:13;34.70;47.10
21355;DHT22;10835;50.148;19.760;2022-07-23T05:10:44;35.00;46.70
21355;DHT22;10835;50.148;19.760;2022-07-23T05:13:14;35.20;45.40
21355;DHT22;10835;50.148;19.760;2022-07-23T05:15:43;35.40;45.50
21355;DHT22;10835;50.148;19.760;2022-07-23T05:18:12;35.10;45.20
21355;DHT22;10835;50.148;19.760;2022-07-23T05:20:40;35.00;46.40
21355;DHT22;10835;50.148;19.760;2022-07-23T05:23:15;34.90;45.70
21355;DHT22;10835;50.148;19.760;2022-07-23T05:25:44;34.90;45.60
21355;DHT22;10835;50.148;19.760;2022-07-23T05:28:12;34.80;45.70
21355;DHT22;10835;50.148;19.760;2022-07-23T05:30:40;34.80;45.90
21355;DHT22;10835;50.148;19.760;2022-07-23T05:33:12;35.30;45.30
21355;DHT22;10835;50.148;19.760;2022-07-23T05:35:41;35.70;43.30
21355;DHT22;10835;50.148;19.760;2022-07-23T05:38:38;35.90;43.80
21355;DHT22;10835;50.148;19.760;2022-07-23T05:41:08;35.70;44.40
21355;DHT22;10835;50.148;19.760;2022-07-23T05:43:37;35.80;45.30
21355;DHT22;10835;50.148;19.760;2022-07-23T05:46:09;35.70;45.20
21355;DHT22;10835;50.148;19.760;2022-07-23T05:48:41;35.80;45.50
21355;DHT22;10835;50.148;19.760;2022-07-23T05:51:27;35.90;44.90
21355;DHT22;10835;50.148;19.760;2022-07-23T05:53:55;35.60;44.60
21355;DHT22;10835;50.148;19.760;2022-07-23T05:56:28;35.50;44.50
21355;DHT22;10835;50.148;19.760;2022-07-23T05:58:56;35.90;45.10
21355;DHT22;10835;50.148;19.760;2022-07-23T06:01:25;35.90;45.90
21355;DHT22;10835;50.148;19.760;2022-07-23T06:04:01;35.80;45.60
21355;DHT22;10835;50.148;19.760;2022-07-23T06:06:34;35.50;46.50
21355;DHT22;10835;50.148;19.760;2022-07-23T06:09:03;35.70;45.80
21355;DHT22;10835;50.148;19.760;2022-07-23T06:11:33;35.90;46.40
21355;DHT22;10835;50.148;19.760;2022-07-23T06:14:01;35.70;46.20
21355;DHT22;10835;50.148;19.760;2022-07-23T06:16:44;35.80;46.30
21355;DHT22;10835;50.148;19.760;2022-07-23T06:19:15;35.60;46.10
21355;DHT22;10835;50.148;19.760;2022-07-23T06:21:43;35.50;46.70
21355;DHT22;10835;50.148;19.760;2022-07-23T06:24:14;35.70;47.30
21355;DHT22;10835;50.148;19.760;2022-07-23T06:26:44;35.60;46.60
21355;DHT22;10835;50.148;19.760;2022-07-23T06:29:12;36.00;46.50
21355;DHT22;10835;50.148;19.760;2022-07-23T06:31:41;35.60;47.00
21355;DHT22;10835;50.148;19.760;2022-07-23T06:34:09;35.90;47.70
21355;DHT22;10835;50.148;19.760;2022-07-23T06:36:37;36.20;48.40
21355;DHT22;10835;50.148;19.760;2022-07-23T06:39:08;36.70;46.70
21355;DHT22;10835;50.148;19.760;2022-07-23T06:41:44;36.70;46.40
21355;DHT22;10835;50.148;19.760;2022-07-23T06:44:17;36.90;46.60
21355;DHT22;10835;50.148;19.760;2022-07-23T06:46:47;37.00;45.90
21355;DHT22;10835;50.148;19.760;2022-07-23T06:49:15;37.10;46.30
21355;DHT22;10835;50.148;19.760;2022-07-23T06:51:44;37.50;46.30
21355;DHT22;10835;50.148;19.760;2022-07-23T06:54:12;37.90;46.20
21355;DHT22;10835;50.148;19.760;2022-07-23T06:56:40;38.00;45.60
21355;DHT22;10835;50.148;19.760;2022-07-23T06:59:11;38.10;45.90
21355;DHT22;10835;50.148;19.760;2022-07-23T07:01:39;38.30;45.10
21355;DHT22;10835;50.148;19.760;2022-07-23T07:04:07;38.50;44.90
21355;DHT22;10835;50.148;19.760;2022-07-23T07:06:35;38.70;44.30
21355;DHT22;10835;50.148;19.760;2022-07-23T07:09:03;38.80;44.30
21355;DHT22;10835;50.148;19.760;2022-07-23T07:11:32;38.70;44.50
21355;DHT22;10835;50.148;19.760;2022-07-23T07:14:00;38.90;43.70
21355;DHT22;10835;50.148;19.760;2022-07-23T07:16:29;38.90;43.60
21355;DHT22;10835;50.148;19.760;2022-07-23T07:18:59;39.00;42.90
21355;DHT22;10835;50.148;19.760;2022-07-23T07:21:28;39.20;41.90
21355;DHT22;10835;50.148;19.760;2022-07-23T07:23:56;39.30;41.90
21355;DHT22;10835;50.148;19.760;2022-07-23T07:26:24;39.30;40.90
21355;DHT22;10835;50.148;19.760;2022-07-23T07:28:55;39.40;40.10
21355;DHT22;10835;50.148;19.760;2022-07-23T07:31:23;39.50;39.40
21355;DHT22;10835;50.148;19.760;2022-07-23T07:33:52;39.60;39.20
21355;DHT22;10835;50.148;19.760;2022-07-23T07:36:24;39.70;39.80
21355;DHT22;10835;50.148;19.760;2022-07-23T07:38:52;39.80;39.40
21355;DHT22;10835;50.148;19.760;2022-07-23T07:41:20;39.60;38.30
21355;DHT22;10835;50.148;19.760;2022-07-23T07:43:50;39.30;39.60
21355;DHT22;10835;50.148;19.760;2022-07-23T07:46:19;39.30;39.60
21355;DHT22;10835;50.148;19.760;2022-07-23T07:48:47;39.50;37.80
21355;DHT22;10835;50.148;19.760;2022-07-23T07:51:20;39.70;37.40
21355;DHT22;10835;50.148;19.760;2022-07-23T07:53:54;40.00;37.20
21355;DHT22;10835;50.148;19.760;2022-07-23T07:56:22;39.90;36.40
21355;DHT22;10835;50.148;19.760;2022-07-23T07:58:50;40.10;36.90
21355;DHT22;10835;50.148;19.760;2022-07-23T08:01:18;39.60;37.10
21355;DHT22;10835;50.148;19.760;2022-07-23T08:03:49;40.10;36.60
21355;DHT22;10835;50.148;19.760;2022-07-23T08:06:17;40.20;37.10
21355;DHT22;10835;50.148;19.760;2022-07-23T08:08:48;40.30;36.80
21355;DHT22;10835;50.148;19.760;2022-07-23T08:11:16;40.50;37.50
21355;DHT22;10835;50.148;19.760;2022-07-23T08:13:44;40.60;37.30
21355;DHT22;10835;50.148;19.760;2022-07-23T08:16:12;40.10;37.60
21355;DHT22;10835;50.148;19.760;2022-07-23T08:18:42;39.70;37.10
21355;DHT22;10835;50.148;19.760;2022-07-23T08:21:10;40.00;36.50
21355;DHT22;10835;50.148;19.760;2022-07-23T08:23:39;40.40;37.00
21355;DHT22;10835;50.148;19.760;2022-07-23T08:26:08;40.50;37.60
21355;DHT22;10835;50.148;19.760;2022-07-23T08:28:36;40.60;37.30
21355;DHT22;10835;50.148;19.760;2022-07-23T08:31:04;40.60;37.00
21355;DHT22;10835;50.148;19.760;2022-07-23T08:33:33;40.90;36.20
21355;DHT22;10835;50.148;19.760;2022-07-23T08:36:02;40.50;37.60
21355;DHT22;10835;50.148;19.760;2022-07-23T08:38:48;40.70;37.40
21355;DHT22;10835;50.148;19.760;2022-07-23T08:41:33;40.90;37.80
21355;DHT22;10835;50.148;19.760;2022-07-23T08:44:15;41.00;37.30
21355;DHT22;10835;50.148;19.760;2022-07-23T08:46:53;41.20;38.00
21355;DHT22;10835;50.148;19.760;2022-07-23T09:12:53;41.40;37.50
21355;DHT22;10835;50.148;19.760;2022-07-23T09:15:21;41.40;37.30
21355;DHT22;10835;50.148;19.760;2022-07-23T09:17:49;41.40;36.70
21355;DHT22;10835;50.148;19.760;2022-07-23T09:20:17;41.60;35.60
21355;DHT22;10835;50.148;19.760;2022-07-23T09:22:47;41.70;36.40
21355;DHT22;10835;50.148;19.760;2022-07-23T09:25:17;41.30;35.50
21355;DHT22;10835;50.148;19.760;2022-07-23T09:27:48;41.50;37.90
21355;DHT22;10835;50.148;19.760;2022-07-23T09:30:24;41.50;35.30
21355;DHT22;10835;50.148;19.760;2022-07-23T09:33:12;41.40;34.90
21355;DHT22;10835;50.148;19.760;2022-07-23T09:35:48;41.50;35.40
21355;DHT22;10835;50.148;19.760;2022-07-23T09:38:18;41.70;36.00
21355;DHT22;10835;50.148;19.760;2022-07-23T09:40:47;41.70;34.80
21355;DHT22;10835;50.148;19.760;2022-07-23T09:43:33;41.90;36.20
21355;DHT22;10835;50.148;19.760;2022-07-23T09:46:24;41.90;35.50
21355;DHT22;10835;50.148;19.760;2022-07-23T09:48:52;41.90;35.50
21355;DHT22;10835;50.148;19.760;2022-07-23T09:51:21;42.00;35.10
21355;DHT22;10835;50.148;19.760;2022-07-23T09:53:53;42.10;35.20
21355;DHT22;10835;50.148;19.760;2022-07-23T09:56:21;42.10;34.80
21355;DHT22;10835;50.148;19.760;2022-07-23T09:58:54;42.10;35.60
21355;DHT22;10835;50.148;19.760;2022-07-23T10:01:32;42.00;35.30
21355;DHT22;10835;50.148;19.760;2022-07-23T10:04:01;42.00;35.10
21355;DHT22;10835;50.148;19.760;2022-07-23T10:06:52;42.40;35.70
21355;DHT22;10835;50.148;19.760;2022-07-23T10:09:53;42.20;33.80
21355;DHT22;10835;50.148;19.760;2022-07-23T10:12:43;41.70;32.10
21355;DHT22;10835;50.148;19.760;2022-07-23T10:15:41;41.60;32.40
21355;DHT22;10835;50.148;19.760;2022-07-23T10:18:13;41.70;33.10
21355;DHT22;10835;50.148;19.760;2022-07-23T10:20:41;41.50;31.20
21355;DHT22;10835;50.148;19.760;2022-07-23T10:23:16;41.40;32.10
21355;DHT22;10835;50.148;19.760;2022-07-23T10:25:55;41.50;31.00
21355;DHT22;10835;50.148;19.760;2022-07-23T10:28:58;41.40;31.40
21355;DHT22;10835;50.148;19.760;2022-07-23T10:31:36;41.50;32.40
21355;DHT22;10835;50.148;19.760;2022-07-23T10:34:34;41.50;32.80
21355;DHT22;10835;50.148;19.760;2022-07-23T10:37:12;41.80;31.70
21355;DHT22;10835;50.148;19.760;2022-07-23T10:39:47;41.80;31.40
21355;DHT22;10835;50.148;19.760;2022-07-23T10:42:17;42.20;31.70
21355;DHT22;10835;50.148;19.760;2022-07-23T10:44:48;42.30;31.20
21355;DHT22;10835;50.148;19.760;2022-07-23T10:47:26;42.40;32.60
21355;DHT22;10835;50.148;19.760;2022-07-23T10:50:23;42.70;31.50
21355;DHT22;10835;50.148;19.760;2022-07-23T10:53:13;42.20;30.70
21355;DHT22;10835;50.148;19.760;2022-07-23T10:55:53;42.20;31.60
21355;DHT22;10835;50.148;19.760;2022-07-23T10:58:23;42.00;30.80
21355;DHT22;10835;50.148;19.760;2022-07-23T11:01:36;41.90;31.10
21355;DHT22;10835;50.148;19.760;2022-07-23T11:04:06;41.90;32.20
21355;DHT22;10835;50.148;19.760;2022-07-23T11:07:10;41.90;31.30
21355;DHT22;10835;50.148;19.760;2022-07-23T11:09:39;42.20;33.20
21355;DHT22;10835;50.148;19.760;2022-07-23T11:15:08;42.40;31.60
21355;DHT22;10835;50.148;19.760;2022-07-23T11:17:38;42.20;32.20
21355;DHT22;10835;50.148;19.760;2022-07-23T11:20:15;42.50;30.30
21355;DHT22;10835;50.148;19.760;2022-07-23T11:22:50;42.70;30.80
21355;DHT22;10835;50.148;19.760;2022-07-23T11:25:31;42.80;30.50
21355;DHT22;10835;50.148;19.760;2022-07-23T11:28:12;42.80;30.00
21355;DHT22;10835;50.148;19.760;2022-07-23T11:30:43;42.80;30.00
21355;DHT22;10835;50.148;19.760;2022-07-23T11:33:17;42.80;30.00
21355;DHT22;10835;50.148;19.760;2022-07-23T11:35:47;42.90;30.00
21355;DHT22;10835;50.148;19.760;2022-07-23T11:38:18;43.00;31.10
21355;DHT22;10835;50.148;19.760;2022-07-23T11:40:48;43.20;30.90
21355;DHT22;10835;50.148;19.760;2022-07-23T11:43:17;43.00;30.80
21355;DHT22;10835;50.148;19.760;2022-07-23T11:45:47;42.90;30.70
21355;DHT22;10835;50.148;19.760;2022-07-23T11:48:18;42.90;29.80
21355;DHT22;10835;50.148;19.760;2022-07-23T11:50:48;43.00;29.70
21355;DHT22;10835;50.148;19.760;2022-07-23T11:53:23;42.70;29.70
21355;DHT22;10835;50.148;19.760;2022-07-23T11:55:53;42.30;29.90
21355;DHT22;10835;50.148;19.760;2022-07-23T11:58:21;42.10;29.50
21355;DHT22;10835;50.148;19.760;2022-07-23T12:00:50;41.80;30.20
21355;DHT22;10835;50.148;19.760;2022-07-23T12:03:19;41.80;31.00
21355;DHT22;10835;50.148;19.760;2022-07-23T12:05:47;41.60;29.70
21355;DHT22;10835;50.148;19.760;2022-07-23T12:08:16;41.70;31.20
21355;DHT22;10835;50.148;19.760;2022-07-23T12:10:45;41.90;30.90
21355;DHT22;10835;50.148;19.760;2022-07-23T12:13:15;41.90;30.40
21355;DHT22;10835;50.148;19.760;2022-07-23T12:15:44;41.90;31.30
21355;DHT22;10835;50.148;19.760;2022-07-23T12:18:14;41.80;31.20
21355;DHT22;10835;50.148;19.760;2022-07-23T12:20:45;41.90;31.50
21355;DHT22;10835;50.148;19.760;2022-07-23T12:23:16;42.10;30.90
21355;DHT22;10835;50.148;19.760;2022-07-23T12:25:50;42.20;31.80
21355;DHT22;10835;50.148;19.760;2022-07-23T12:28:21;42.30;31.40
21355;DHT22;10835;50.148;19.760;2022-07-23T12:30:50;42.40;31.20
21355;DHT22;10835;50.148;19.760;2022-07-23T12:33:23;42.70;29.60
21355;DHT22;10835;50.148;19.760;2022-07-23T12:35:54;42.60;30.80
21355;DHT22;10835;50.148;19.760;2022-07-23T12:38:24;42.70;30.40
21355;DHT22;10835;50.148;19.760;2022-07-23T12:40:55;42.60;30.30
21355;DHT22;10835;50.148;19.760;2022-07-23T12:43:25;42.80;29.40
21355;DHT22;10835;50.148;19.760;2022-07-23T12:45:56;42.60;30.00
21355;DHT22;10835;50.148;19.760;2022-07-23T12:48:26;42.20;28.70
21355;DHT22;10835;50.148;19.760;2022-07-23T12:50:57;42.20;29.20
21355;DHT22;10835;50.148;19.760;2022-07-23T12:53:28;42.00;30.30
21355;DHT22;10835;50.148;19.760;2022-07-23T12:56:04;42.20;30.10
21355;DHT22;10835;50.148;19.760;2022-07-23T12:58:43;42.10;28.80
21355;DHT22;10835;50.148;19.760;2022-07-23T13:01:32;42.30;29.50
21355;DHT22;10835;50.148;19.760;2022-07-23T13:04:03;42.50;29.70
21355;DHT22;10835;50.148;19.760;2022-07-23T13:06:52;42.70;29.10
21355;DHT22;10835;50.148;19.760;2022-07-23T13:09:22;42.80;30.30
21355;DHT22;10835;50.148;19.760;2022-07-23T13:11:54;42.70;29.60
21355;DHT22;10835;50.148;19.760;2022-07-23T13:14:23;42.80;29.60
21355;DHT22;10835;50.148;19.760;2022-07-23T13:16:53;42.80;30.00
21355;DHT22;10835;50.148;19.760;2022-07-23T13:19:23;42.40;30.80
21355;DHT22;10835;50.148;19.760;2022-07-23T13:21:53;42.40;29.30
21355;DHT22;10835;50.148;19.760;2022-07-23T13:24:21;42.30;30.60
21355;DHT22;10835;50.148;19.760;2022-07-23T13:26:50;42.40;29.90
21355;DHT22;10835;50.148;19.760;2022-07-23T13:29:20;42.20;31.80
21355;DHT22;10835;50.148;19.760;2022-07-23T13:31:48;42.00;31.30
21355;DHT22;10835;50.148;19.760;2022-07-23T13:34:17;42.00;30.90
21355;DHT22;10835;50.148;19.760;2022-07-23T13:36:46;41.70;31.50
21355;DHT22;10835;50.148;19.760;2022-07-23T13:39:14;41.60;31.60
21355;DHT22;10835;50.148;19.760;2022-07-23T13:41:43;41.60;31.90
21355;DHT22;10835;50.148;19.760;2022-07-23T13:44:16;41.50;31.90
21355;DHT22;10835;50.148;19.760;2022-07-23T13:46:45;41.30;32.20
21355;DHT22;10835;50.148;19.760;2022-07-23T13:49:14;41.40;32.90
21355;DHT22;10835;50.148;19.760;2022-07-23T13:51:42;41.40;33.40
21355;DHT22;10835;50.148;19.760;2022-07-23T13:54:10;41.40;33.40
21355;DHT22;10835;50.148;19.760;2022-07-23T13:56:38;41.30;33.30
21355;DHT22;10835;50.148;19.760;2022-07-23T13:59:06;41.30;33.80
21355;DHT22;10835;50.148;19.760;2022-07-23T14:01:35;41.10;33.60
21355;DHT22;10835;50.148;19.760;2022-07-23T14:04:24;41.10;33.70
21355;DHT22;10835;50.148;19.760;2022-07-23T14:06:56;41.10;35.00
21355;DHT22;10835;50.148;19.760;2022-07-23T14:09:24;41.10;34.30
21355;DHT22;10835;50.148;19.760;2022-07-23T14:11:54;41.10;35.60
21355;DHT22;10835;50.148;19.760;2022-07-23T14:14:22;41.10;36.60
21355;DHT22;10835;50.148;19.760;2022-07-23T14:16:50;41.40;37.10
21355;DHT22;10835;50.148;19.760;2022-07-23T14:19:18;41.50;37.10
21355;DHT22;10835;50.148;19.760;2022-07-23T14:21:47;41.60;37.50
21355;DHT22;10835;50.148;19.760;2022-07-23T14:24:17;41.50;38.00
21355;DHT22;10835;50.148;19.760;2022-07-23T14:26:47;41.20;37.50
21355;DHT22;10835;50.148;19.760;2022-07-23T14:29:16;41.00;37.70
21355;DHT22;10835;50.148;19.760;2022-07-23T14:31:45;41.00;36.80
21355;DHT22;10835;50.148;19.760;2022-07-23T14:34:13;41.00;36.70
21355;DHT22;10835;50.148;19.760;2022-07-23T14:36:41;40.90;36.70
21355;DHT22;10835;50.148;19.760;2022-07-23T14:39:12;40.90;37.40
21355;DHT22;10835;50.148;19.760;2022-07-23T14:41:40;40.80;37.80
21355;DHT22;10835;50.148;19.760;2022-07-23T14:44:08;40.30;37.80
21355;DHT22;10835;50.148;19.760;2022-07-23T14:46:36;39.60;38.70
21355;DHT22;10835;50.148;19.760;2022-07-23T14:49:04;39.20;37.10
21355;DHT22;10835;50.148;19.760;2022-07-23T14:51:34;39.20;37.60
21355;DHT22;10835;50.148;19.760;2022-07-23T14:54:03;39.00;38.00
21355;DHT22;10835;50.148;19.760;2022-07-23T14:56:33;38.80;37.80
21355;DHT22;10835;50.148;19.760;2022-07-23T14:59:03;38.50;38.10
21355;DHT22;10835;50.148;19.760;2022-07-23T15:01:31;38.00;38.90
21355;DHT22;10835;50.148;19.760;2022-07-23T15:04:01;37.70;40.70
21355;DHT22;10835;50.148;19.760;2022-07-23T15:06:49;36.80;42.40
21355;DHT22;10835;50.148;19.760;2022-07-23T15:09:17;35.60;44.60
21355;DHT22;10835;50.148;19.760;2022-07-23T15:11:47;34.80;47.60
21355;DHT22;10835;50.148;19.760;2022-07-23T15:14:16;34.20;50.10
21355;DHT22;10835;50.148;19.760;2022-07-23T15:16:54;33.70;52.00
21355;DHT22;10835;50.148;19.760;2022-07-23T15:19:22;33.30;54.00
21355;DHT22;10835;50.148;19.760;2022-07-23T15:21:50;33.00;54.60
21355;DHT22;10835;50.148;19.760;2022-07-23T15:24:19;33.20;55.80
21355;DHT22;10835;50.148;19.760;2022-07-23T15:26:48;33.20;54.70
21355;DHT22;10835;50.148;19.760;2022-07-23T15:29:16;33.20;55.60
21355;DHT22;10835;50.148;19.760;2022-07-23T15:31:47;33.20;54.70
21355;DHT22;10835;50.148;19.760;2022-07-23T15:34:24;32.90;54.20
21355;DHT22;10835;50.148;19.760;2022-07-23T15:36:52;32.10;56.50
21355;DHT22;10835;50.148;19.760;2022-07-23T15:39:21;32.00;58.00
21355;DHT22;10835;50.148;19.760;2022-07-23T15:41:52;31.90;57.60
21355;DHT22;10835;50.148;19.760;2022-07-23T15:44:20;32.40;55.70
21355;DHT22;10835;50.148;19.760;2022-07-23T15:46:55;32.60;54.80
21355;DHT22;10835;50.148;19.760;2022-07-23T15:49:25;32.40;55.80
21355;DHT22;10835;50.148;19.760;2022-07-23T15:51:53;32.20;56.20
21355;DHT22;10835;50.148;19.760;2022-07-23T15:54:23;32.50;56.80
21355;DHT22;10835;50.148;19.760;2022-07-23T15:56:53;32.40;57.10
21355;DHT22;10835;50.148;19.760;2022-07-23T15:59:22;32.20;58.30
21355;DHT22;10835;50.148;19.760;2022-07-23T16:01:57;32.10;58.00
21355;DHT22;10835;50.148;19.760;2022-07-23T16:04:25;32.00;58.80
21355;DHT22;10835;50.148;19.760;2022-07-23T16:06:56;32.40;58.00